sensor_id;sensor_type;location;lat;lon;timestamp;temperature;humidity
21928;DHT22;11128;51.096;17.190;2022-11-15T00:01:52;4.80;99.90
21928;DHT22;11128;51.096;17.190;2022-11-15T00:06:53;4.60;99.90
21928;DHT22;11128;51.096;17.190;2022-11-15T00:11:55;4.50;99.90
21928;DHT22;11128;51.096;17.190;2022-11-15T00:16:56;4.60;99.90
21928;DHT22;11128;51.096;17.190;2022-11-15T00:21:57;4.60;99.90
21928;DHT22;11128;51.096;17.190;2022-11-15T00:26:59;4.50;99.90
21928;DHT22;11128;51.096;17.190;2022-11-15T00:32:00;5.20;99.90
21928;DHT22;11128;51.096;17.190;2022-11-15T00:37:01;4.30;99.90
21928;DHT22;11128;51.096;17.190;2022-11-15T00:42:03;4.20;99.90
21928;DHT22;11128;51.096;17.190;2022-11-15T00:47:04;4.30;99.90
21928;DHT22;11128;51.096;17.190;2022-11-15T00:52:05;4.10;99.90
21928;DHT22;11128;51.096;17.190;2022-11-15T00:57:07;4.20;99.90
21928;DHT22;11128;51.096;17.190;2022-11-15T01:02:08;4.00;99.90
21928;DHT22;11128;51.096;17.190;2022-11-15T01:07:09;3.90;99.90
21928;DHT22;11128;51.096;17.190;2022-11-15T01:12:10;3.80;99.90
21928;DHT22;11128;51.096;17.190;2022-11-15T01:17:12;3.80;99.90
21928;DHT22;11128;51.096;17.190;2022-11-15T01:22:13;3.90;99.90
21928;DHT22;11128;51.096;17.190;2022-11-15T01:27:14;3.90;99.90
21928;DHT22;11128;51.096;17.190;2022-11-15T01:32:16;3.90;99.90
21928;DHT22;11128;51.096;17.190;2022-11-15T01:37:17;3.90;99.90
21928;DHT22;11128;51.096;17.190;2022-11-15T01:42:19;3.80;99.90
21928;DHT22;11128;51.096;17.190;2022-11-15T01:47:24;3.60;99.90
21928;DHT22;11128;51.096;17.190;2022-11-15T01:52:28;3.50;99.90
21928;DHT22;11128;51.096;17.190;2022-11-15T01:57:31;3.60;99.90
21928;DHT22;11128;51.096;17.190;2022-11-15T02:02:33;3.60;99.90
21928;DHT22;11128;51.096;17.190;2022-11-15T02:07:35;3.60;99.90
21928;DHT22;11128;51.096;17.190;2022-11-15T02:12:37;3.70;99.90
21928;DHT22;11128;51.096;17.190;2022-11-15T02:23:13;3.40;99.90
21928;DHT22;11128;51.096;17.190;2022-11-15T02:33:35;3.10;99.90
21928;DHT22;11128;51.096;17.190;2022-11-15T02:44:00;2.90;99.90
21928;DHT22;11128;51.096;17.190;2022-11-15T02:49:03;2.80;99.90
21928;DHT22;11128;51.096;17.190;2022-11-15T02:54:04;2.80;99.90
21928;DHT22;11128;51.096;17.190;2022-11-15T03:20:13;2.40;99.90
21928;DHT22;11128;51.096;17.190;2022-11-15T03:25:20;2.40;99.90
21928;DHT22;11128;51.096;17.190;2022-11-15T03:30:23;2.30;99.90
21928;DHT22;11128;51.096;17.190;2022-11-15T03:35:27;2.20;99.90
21928;DHT22;11128;51.096;17.190;2022-11-15T03:41:39;2.10;99.90
21928;DHT22;11128;51.096;17.190;2022-11-15T03:46:19;2.10;99.90
21928;DHT22;11128;51.096;17.190;2022-11-15T03:51:21;2.00;99.90
21928;DHT22;11128;51.096;17.190;2022-11-15T03:56:22;1.90;99.90
21928;DHT22;11128;51.096;17.190;2022-11-15T04:01:24;1.90;99.90
21928;DHT22;11128;51.096;17.190;2022-11-15T04:06:25;1.80;99.90
21928;DHT22;11128;51.096;17.190;2022-11-15T04:11:27;1.80;99.90
21928;DHT22;11128;51.096;17.190;2022-11-15T04:16:28;1.80;99.90
21928;DHT22;11128;51.096;17.190;2022-11-15T04:21:29;1.80;99.90
21928;DHT22;11128;51.096;17.190;2022-11-15T04:26:49;1.80;99.90
21928;DHT22;11128;51.096;17.190;2022-11-15T04:31:51;1.70;99.90
21928;DHT22;11128;51.096;17.190;2022-11-15T04:36:52;1.60;99.90
21928;DHT22;11128;51.096;17.190;2022-11-15T04:42:12;1.50;99.90
21928;DHT22;11128;51.096;17.190;2022-11-15T04:47:13;1.60;99.90
21928;DHT22;11128;51.096;17.190;2022-11-15T04:52:15;1.50;99.90
21928;DHT22;11128;51.096;17.190;2022-11-15T04:57:16;1.40;99.90
21928;DHT22;11128;51.096;17.190;2022-11-15T05:02:17;1.40;99.90
21928;DHT22;11128;51.096;17.190;2022-11-15T05:07:21;1.40;99.90
21928;DHT22;11128;51.096;17.190;2022-11-15T05:12:23;1.70;99.90
21928;DHT22;11128;51.096;17.190;2022-11-15T05:17:24;1.30;99.90
21928;DHT22;11128;51.096;17.190;2022-11-15T05:22:26;1.30;99.90
21928;DHT22;11128;51.096;17.190;2022-11-15T05:27:27;1.30;99.90
21928;DHT22;11128;51.096;17.190;2022-11-15T05:32:29;1.30;99.90
21928;DHT22;11128;51.096;17.190;2022-11-15T05:37:30;1.30;99.90
21928;DHT22;11128;51.096;17.190;2022-11-15T05:42:32;1.30;99.90
21928;DHT22;11128;51.096;17.190;2022-11-15T05:47:34;1.50;99.90
21928;DHT22;11128;51.096;17.190;2022-11-15T05:52:37;1.00;99.90
21928;DHT22;11128;51.096;17.190;2022-11-15T05:57:41;1.20;99.90
21928;DHT22;11128;51.096;17.190;2022-11-15T06:02:42;1.10;99.90
21928;DHT22;11128;51.096;17.190;2022-11-15T06:07:43;1.30;99.90
21928;DHT22;11128;51.096;17.190;2022-11-15T06:12:45;1.10;99.90
21928;DHT22;11128;51.096;17.190;2022-11-15T06:17:47;1.00;99.90
21928;DHT22;11128;51.096;17.190;2022-11-15T06:22:48;1.10;99.90
21928;DHT22;11128;51.096;17.190;2022-11-15T06:27:56;2.10;99.90
21928;DHT22;11128;51.096;17.190;2022-11-15T06:33:00;1.10;99.90
21928;DHT22;11128;51.096;17.190;2022-11-15T06:38:09;1.80;99.90
21928;DHT22;11128;51.096;17.190;2022-11-15T06:43:10;1.20;99.90
21928;DHT22;11128;51.096;17.190;2022-11-15T06:48:12;1.30;99.90
21928;DHT22;11128;51.096;17.190;2022-11-15T06:53:13;1.70;99.90
21928;DHT22;11128;51.096;17.190;2022-11-15T06:58:14;2.20;99.90
21928;DHT22;11128;51.096;17.190;2022-11-15T07:03:16;1.60;99.90
21928;DHT22;11128;51.096;17.190;2022-11-15T07:08:17;1.70;99.90
21928;DHT22;11128;51.096;17.190;2022-11-15T07:13:18;1.90;99.90
21928;DHT22;11128;51.096;17.190;2022-11-15T07:18:20;2.10;99.90
21928;DHT22;11128;51.096;17.190;2022-11-15T07:23:21;2.20;99.90
21928;DHT22;11128;51.096;17.190;2022-11-15T07:28:22;2.20;99.90
21928;DHT22;11128;51.096;17.190;2022-11-15T07:33:24;2.30;99.90
21928;DHT22;11128;51.096;17.190;2022-11-15T07:38:25;2.50;99.90
21928;DHT22;11128;51.096;17.190;2022-11-15T07:43:27;2.80;99.90
21928;DHT22;11128;51.096;17.190;2022-11-15T07:48:28;3.20;99.90
21928;DHT22;11128;51.096;17.190;2022-11-15T07:53:30;3.50;99.90
21928;DHT22;11128;51.096;17.190;2022-11-15T07:58:32;3.90;99.90
21928;DHT22;11128;51.096;17.190;2022-11-15T08:03:33;4.20;99.90
21928;DHT22;11128;51.096;17.190;2022-11-15T08:08:35;4.60;99.90
21928;DHT22;11128;51.096;17.190;2022-11-15T08:13:36;5.00;99.90
21928;DHT22;11128;51.096;17.190;2022-11-15T08:18:37;5.20;99.90
21928;DHT22;11128;51.096;17.190;2022-11-15T08:23:39;5.50;99.90
21928;DHT22;11128;51.096;17.190;2022-11-15T08:28:41;5.90;99.90
21928;DHT22;11128;51.096;17.190;2022-11-15T08:33:44;6.40;99.90
21928;DHT22;11128;51.096;17.190;2022-11-15T08:38:45;7.00;99.90
21928;DHT22;11128;51.096;17.190;2022-11-15T08:43:47;7.30;99.90
21928;DHT22;11128;51.096;17.190;2022-11-15T08:48:48;8.00;99.90
21928;DHT22;11128;51.096;17.190;2022-11-15T08:53:49;8.60;99.90
21928;DHT22;11128;51.096;17.190;2022-11-15T08:58:51;9.00;99.90
21928;DHT22;11128;51.096;17.190;2022-11-15T09:03:52;9.10;99.90
21928;DHT22;11128;51.096;17.190;2022-11-15T09:08:53;9.60;99.90
21928;DHT22;11128;51.096;17.190;2022-11-15T09:13:55;9.90;99.90
21928;DHT22;11128;51.096;17.190;2022-11-15T09:18:56;10.30;99.90
21928;DHT22;11128;51.096;17.190;2022-11-15T09:23:58;10.70;99.90
21928;DHT22;11128;51.096;17.190;2022-11-15T09:29:00;11.30;99.90
21928;DHT22;11128;51.096;17.190;2022-11-15T09:34:02;11.30;99.90
21928;DHT22;11128;51.096;17.190;2022-11-15T09:39:03;11.70;99.90
21928;DHT22;11128;51.096;17.190;2022-11-15T09:44:53;12.00;99.90
21928;DHT22;11128;51.096;17.190;2022-11-15T09:49:59;12.10;99.90
21928;DHT22;11128;51.096;17.190;2022-11-15T09:55:02;12.20;99.90
21928;DHT22;11128;51.096;17.190;2022-11-15T10:00:20;12.60;99.90
21928;DHT22;11128;51.096;17.190;2022-11-15T10:05:24;12.90;99.90
21928;DHT22;11128;51.096;17.190;2022-11-15T10:10:37;13.30;99.90
21928;DHT22;11128;51.096;17.190;2022-11-15T10:15:42;13.80;96.70
21928;DHT22;11128;51.096;17.190;2022-11-15T10:20:50;14.30;94.90
21928;DHT22;11128;51.096;17.190;2022-11-15T10:25:55;14.40;87.50
21928;DHT22;11128;51.096;17.190;2022-11-15T10:30:59;14.60;90.90
21928;DHT22;11128;51.096;17.190;2022-11-15T10:41:11;15.30;80.90
21928;DHT22;11128;51.096;17.190;2022-11-15T10:46:23;15.40;71.00
21928;DHT22;11128;51.096;17.190;2022-11-15T10:51:27;15.70;66.10
21928;DHT22;11128;51.096;17.190;2022-11-15T10:56:29;15.80;68.80
21928;DHT22;11128;51.096;17.190;2022-11-15T11:01:30;16.10;67.80
21928;DHT22;11128;51.096;17.190;2022-11-15T11:06:54;16.30;69.70
21928;DHT22;11128;51.096;17.190;2022-11-15T11:11:55;16.90;63.50
21928;DHT22;11128;51.096;17.190;2022-11-15T11:38:31;18.50;47.30
21928;DHT22;11128;51.096;17.190;2022-11-15T11:49:10;18.70;40.00
21928;DHT22;11128;51.096;17.190;2022-11-15T11:54:38;19.80;39.30
21928;DHT22;11128;51.096;17.190;2022-11-15T11:59:51;19.80;35.00
21928;DHT22;11128;51.096;17.190;2022-11-15T12:05:04;19.80;38.10
21928;DHT22;11128;51.096;17.190;2022-11-15T12:15:24;20.20;31.20
21928;DHT22;11128;51.096;17.190;2022-11-15T12:20:34;20.60;30.60
21928;DHT22;11128;51.096;17.190;2022-11-15T12:30:54;20.20;32.80
21928;DHT22;11128;51.096;17.190;2022-11-15T12:41:24;20.70;32.20
21928;DHT22;11128;51.096;17.190;2022-11-15T12:56:43;21.40;27.50
21928;DHT22;11128;51.096;17.190;2022-11-15T13:11:52;21.10;26.00
21928;DHT22;11128;51.096;17.190;2022-11-15T13:16:58;21.00;29.60
21928;DHT22;11128;51.096;17.190;2022-11-15T13:22:04;22.30;26.90
21928;DHT22;11128;51.096;17.190;2022-11-15T13:27:24;22.70;24.50
21928;DHT22;11128;51.096;17.190;2022-11-15T13:32:26;23.30;24.90
21928;DHT22;11128;51.096;17.190;2022-11-15T13:37:29;23.00;24.30
21928;DHT22;11128;51.096;17.190;2022-11-15T13:42:31;22.70;25.20
21928;DHT22;11128;51.096;17.190;2022-11-15T13:47:33;22.50;26.20
21928;DHT22;11128;51.096;17.190;2022-11-15T13:52:37;22.00;26.90
21928;DHT22;11128;51.096;17.190;2022-11-15T14:02:42;20.90;29.10
21928;DHT22;11128;51.096;17.190;2022-11-15T14:08:00;19.60;32.00
21928;DHT22;11128;51.096;17.190;2022-11-15T14:13:04;18.20;37.00
21928;DHT22;11128;51.096;17.190;2022-11-15T14:18:06;17.00;44.00
21928;DHT22;11128;51.096;17.190;2022-11-15T14:23:27;16.10;55.20
21928;DHT22;11128;51.096;17.190;2022-11-15T14:28:33;15.50;67.10
21928;DHT22;11128;51.096;17.190;2022-11-15T14:33:39;14.90;84.80
21928;DHT22;11128;51.096;17.190;2022-11-15T14:38:41;14.40;95.40
21928;DHT22;11128;51.096;17.190;2022-11-15T14:43:44;13.90;99.90
21928;DHT22;11128;51.096;17.190;2022-11-15T14:48:45;13.40;99.90
21928;DHT22;11128;51.096;17.190;2022-11-15T14:53:47;13.00;99.90
21928;DHT22;11128;51.096;17.190;2022-11-15T14:58:48;12.90;99.90
21928;DHT22;11128;51.096;17.190;2022-11-15T15:03:50;12.70;99.90
21928;DHT22;11128;51.096;17.190;2022-11-15T15:08:57;12.50;99.90
21928;DHT22;11128;51.096;17.190;2022-11-15T15:13:59;12.20;99.90
21928;DHT22;11128;51.096;17.190;2022-11-15T15:19:02;12.00;99.90
21928;DHT22;11128;51.096;17.190;2022-11-15T15:24:04;11.90;99.90
21928;DHT22;11128;51.096;17.190;2022-11-15T15:29:05;11.70;99.90
21928;DHT22;11128;51.096;17.190;2022-11-15T15:34:06;11.60;99.90
21928;DHT22;11128;51.096;17.190;2022-11-15T15:39:10;11.10;99.90
21928;DHT22;11128;51.096;17.190;2022-11-15T15:44:12;10.70;99.90
21928;DHT22;11128;51.096;17.190;2022-11-15T15:49:13;10.30;99.90
21928;DHT22;11128;51.096;17.190;2022-11-15T15:54:15;10.00;99.90
21928;DHT22;11128;51.096;17.190;2022-11-15T15:59:16;9.80;99.90
21928;DHT22;11128;51.096;17.190;2022-11-15T16:04:17;9.40;99.90
21928;DHT22;11128;51.096;17.190;2022-11-15T16:09:20;9.10;99.90
21928;DHT22;11128;51.096;17.190;2022-11-15T16:14:41;8.80;99.90
21928;DHT22;11128;51.096;17.190;2022-11-15T16:19:43;8.70;99.90
21928;DHT22;11128;51.096;17.190;2022-11-15T16:24:45;8.60;99.90
21928;DHT22;11128;51.096;17.190;2022-11-15T16:29:46;8.60;99.90
21928;DHT22;11128;51.096;17.190;2022-11-15T16:34:47;8.40;99.90
21928;DHT22;11128;51.096;17.190;2022-11-15T16:39:49;8.20;99.90
21928;DHT22;11128;51.096;17.190;2022-11-15T16:44:50;8.00;99.90
21928;DHT22;11128;51.096;17.190;2022-11-15T16:49:51;7.80;99.90
21928;DHT22;11128;51.096;17.190;2022-11-15T16:54:53;7.60;99.90
21928;DHT22;11128;51.096;17.190;2022-11-15T16:59:54;7.60;99.90
21928;DHT22;11128;51.096;17.190;2022-11-15T17:04:56;7.50;99.90
21928;DHT22;11128;51.096;17.190;2022-11-15T17:09:57;7.30;99.90
21928;DHT22;11128;51.096;17.190;2022-11-15T17:14:59;7.10;99.90
21928;DHT22;11128;51.096;17.190;2022-11-15T17:20:08;7.00;99.90
21928;DHT22;11128;51.096;17.190;2022-11-15T17:25:32;6.90;99.90
21928;DHT22;11128;51.096;17.190;2022-11-15T17:30:53;6.70;99.90
21928;DHT22;11128;51.096;17.190;2022-11-15T17:35:57;6.60;99.90
21928;DHT22;11128;51.096;17.190;2022-11-15T17:41:03;6.50;99.90
21928;DHT22;11128;51.096;17.190;2022-11-15T17:46:16;6.40;99.90
21928;DHT22;11128;51.096;17.190;2022-11-15T17:51:18;6.30;99.90
21928;DHT22;11128;51.096;17.190;2022-11-15T17:56:39;6.30;99.90
21928;DHT22;11128;51.096;17.190;2022-11-15T18:01:46;6.20;99.90
21928;DHT22;11128;51.096;17.190;2022-11-15T18:07:06;6.10;99.90
21928;DHT22;11128;51.096;17.190;2022-11-15T18:12:13;5.90;99.90
21928;DHT22;11128;51.096;17.190;2022-11-15T18:17:14;3.90;99.90
21928;DHT22;11128;51.096;17.190;2022-11-15T18:22:35;5.80;99.90
21928;DHT22;11128;51.096;17.190;2022-11-15T18:27:55;5.70;99.90
21928;DHT22;11128;51.096;17.190;2022-11-15T18:32:56;5.80;99.90
21928;DHT22;11128;51.096;17.190;2022-11-15T18:38:17;5.50;99.90
21928;DHT22;11128;51.096;17.190;2022-11-15T18:43:18;5.40;99.90
21928;DHT22;11128;51.096;17.190;2022-11-15T18:48:40;5.40;99.90
21928;DHT22;11128;51.096;17.190;2022-11-15T18:54:01;5.40;99.90
21928;DHT22;11128;51.096;17.190;2022-11-15T18:59:22;5.50;99.90
21928;DHT22;11128;51.096;17.190;2022-11-15T19:04:23;5.80;99.90
21928;DHT22;11128;51.096;17.190;2022-11-15T19:09:24;5.60;99.90
21928;DHT22;11128;51.096;17.190;2022-11-15T19:14:38;5.60;99.90
21928;DHT22;11128;51.096;17.190;2022-11-15T19:19:44;5.70;99.90
21928;DHT22;11128;51.096;17.190;2022-11-15T19:24:51;5.70;99.90
21928;DHT22;11128;51.096;17.190;2022-11-15T19:29:57;5.80;99.90
21928;DHT22;11128;51.096;17.190;2022-11-15T19:35:18;5.80;99.90
21928;DHT22;11128;51.096;17.190;2022-11-15T19:40:20;5.80;99.90
21928;DHT22;11128;51.096;17.190;2022-11-15T19:45:21;5.90;99.90
21928;DHT22;11128;51.096;17.190;2022-11-15T19:50:22;5.80;99.90
21928;DHT22;11128;51.096;17.190;2022-11-15T19:55:24;5.80;99.90
21928;DHT22;11128;51.096;17.190;2022-11-15T20:00:25;5.80;99.90
21928;DHT22;11128;51.096;17.190;2022-11-15T20:05:26;5.90;99.90
21928;DHT22;11128;51.096;17.190;2022-11-15T20:10:28;5.90;99.90
21928;DHT22;11128;51.096;17.190;2022-11-15T20:15:49;5.90;99.90
21928;DHT22;11128;51.096;17.190;2022-11-15T20:20:55;6.00;99.90
21928;DHT22;11128;51.096;17.190;2022-11-15T20:26:18;6.00;99.90
21928;DHT22;11128;51.096;17.190;2022-11-15T20:31:20;6.00;99.90
21928;DHT22;11128;51.096;17.190;2022-11-15T20:36:22;6.10;99.90
21928;DHT22;11128;51.096;17.190;2022-11-15T20:41:24;6.20;99.90
21928;DHT22;11128;51.096;17.190;2022-11-15T20:46:25;6.20;99.90
21928;DHT22;11128;51.096;17.190;2022-11-15T20:51:27;6.20;99.90
21928;DHT22;11128;51.096;17.190;2022-11-15T20:56:28;6.20;99.90
21928;DHT22;11128;51.096;17.190;2022-11-15T21:01:30;6.20;99.90
21928;DHT22;11128;51.096;17.190;2022-11-15T21:06:32;6.20;99.90
21928;DHT22;11128;51.096;17.190;2022-11-15T21:11:33;6.20;99.90
21928;DHT22;11128;51.096;17.190;2022-11-15T21:16:52;6.20;99.90
21928;DHT22;11128;51.096;17.190;2022-11-15T21:21:54;6.20;99.90
21928;DHT22;11128;51.096;17.190;2022-11-15T21:26:56;6.20;99.90
21928;DHT22;11128;51.096;17.190;2022-11-15T21:31:57;6.20;99.90
21928;DHT22;11128;51.096;17.190;2022-11-15T21:36:58;6.20;99.90
21928;DHT22;11128;51.096;17.190;2022-11-15T21:42:00;6.20;99.90
21928;DHT22;11128;51.096;17.190;2022-11-15T21:47:01;6.30;99.90
21928;DHT22;11128;51.096;17.190;2022-11-15T21:52:03;6.30;99.90
21928;DHT22;11128;51.096;17.190;2022-11-15T21:57:04;6.30;99.90
21928;DHT22;11128;51.096;17.190;2022-11-15T22:02:08;6.40;99.90
21928;DHT22;11128;51.096;17.190;2022-11-15T22:07:15;6.30;99.90
21928;DHT22;11128;51.096;17.190;2022-11-15T22:12:16;6.30;99.90
21928;DHT22;11128;51.096;17.190;2022-11-15T22:17:18;6.30;99.90
21928;DHT22;11128;51.096;17.190;2022-11-15T22:22:19;6.30;99.90
21928;DHT22;11128;51.096;17.190;2022-11-15T22:27:21;6.20;99.90
21928;DHT22;11128;51.096;17.190;2022-11-15T22:32:23;6.20;99.90
21928;DHT22;11128;51.096;17.190;2022-11-15T22:37:24;6.20;99.90
21928;DHT22;11128;51.096;17.190;2022-11-15T22:42:25;6.20;99.90
21928;DHT22;11128;51.096;17.190;2022-11-15T22:47:27;6.20;99.90
21928;DHT22;11128;51.096;17.190;2022-11-15T22:52:29;6.20;99.90
21928;DHT22;11128;51.096;17.190;2022-11-15T22:57:30;6.10;99.90
21928;DHT22;11128;51.096;17.190;2022-11-15T23:02:32;6.10;99.90
21928;DHT22;11128;51.096;17.190;2022-11-15T23:07:33;6.00;99.90
21928;DHT22;11128;51.096;17.190;2022-11-15T23:12:35;6.00;99.90
21928;DHT22;11128;51.096;17.190;2022-11-15T23:17:55;6.00;99.90
21928;DHT22;11128;51.096;17.190;2022-11-15T23:22:57;5.90;99.90
21928;DHT22;11128;51.096;17.190;2022-11-15T23:28:01;6.00;99.90
21928;DHT22;11128;51.096;17.190;2022-11-15T23:33:03;5.90;99.90
21928;DHT22;11128;51.096;17.190;2022-11-15T23:38:23;5.90;99.90
21928;DHT22;11128;51.096;17.190;2022-11-15T23:43:24;5.90;99.90
21928;DHT22;11128;51.096;17.190;2022-11-15T23:48:25;5.80;99.90
21928;DHT22;11128;51.096;17.190;2022-11-15T23:53:28;5.80;99.90
21928;DHT22;11128;51.096;17.190;2022-11-15T23:58:29;5.80;99.90
